Terminal Aerodrome Forecast
Issued by NWS Charleston, SC

Home | Current Version | Previous Version | Text Only | Print | Product List | Glossary On
Versions: 1 2 3 4 5 6 7 8 9 10 11 12 13 14
000
FTUS42 KCHS 251849 AAA
TAFCHS
TAF AMD
KCHS 251849Z 2519/2618 19015G22KT P6SM FEW008 BKN015 OVC035
     FM252100 20015G22KT P6SM SCT015 SCT035 BKN100
     FM260300 23009KT P6SM SCT035 SCT100 WS020/25040KT
     FM260800 24008KT P6SM SCT008 SCT020 WS020/26040KT
     FM261200 27010KT P6SM SCT030
     FM261500 27013G20KT P6SM FEW050=

USA.gov is the U.S. government's official web portal to all federal, state and local government web resources and services.